Flight Track Log - Related Links

Times and Time Zones

All times are in EDT time to prevent confusion due to time zone crossing. See the AWE1940 flight status page for this flight to view local times or setup timezone preferences in your user account.

Time Position Orientation Groundspeed Altitude Reporting Facility
EDT Latitude Longitude Course Direction KTS MPH feet Rate Location/Type
Fri 10:32:29 PM 35.2283 -80.9394 11° North 170 196 1,500  Level Atlanta Center
Fri 10:33:23 PM 35.2783 -80.9272 11° North 218 251 3,700 2,609 Climbing Atlanta Center
Fri 10:34:24 PM 35.3017 -80.8603 67° East 264 304 6,500 2,930 Climbing Atlanta Center
Fri 10:35:32 PM 35.2922 -80.7486 96° East 311 358 10,000 2,719 Climbing Atlanta Center
Fri 10:36:32 PM 35.2936 -80.6442 89° East 311 358 12,300 2,450 Climbing Atlanta Center
Fri 10:37:32 PM 35.3175 -80.5289 76° East 319 367 14,900 2,450 Climbing Atlanta Center
Fri 10:38:32 PM 35.3517 -80.4075 71° East 358 412 17,200 2,350 Climbing Atlanta Center
Fri 10:39:32 PM 35.3897 -80.2861 69° East 376 433 19,600 2,060 Climbing Atlanta Center
Fri 10:41:18 PM 35.4508 -80.0592 72° East 404 465 22,900 1,244 Climbing Washington Center
Fri 10:42:16 PM 35.4844 -79.9411 71° East 404 465 23,000 605 Climbing Washington Center
Fri 10:43:17 PM 35.5186 -79.8053 73° East 404 465 24,100 1,328 Climbing Washington Center
Fri 10:44:18 PM 35.5547 -79.6667 72° East 416 479 25,700 1,700 Climbing Washington Center
Fri 10:45:17 PM 35.5953 -79.5078 73° East 424 488 27,500 1,983 Climbing Washington Center
Fri 10:46:16 PM 35.6328 -79.3844 69° East 430 495 29,600 1,537 Climbing Washington Center
Fri 10:47:18 PM 35.6892 -79.2492 63° Northeast 430 495 30,600 1,100 Climbing Washington Center
Fri 10:48:16 PM 35.7617 -79.1244 54° Northeast 430 495 31,800 1,220 Climbing Washington Center
Fri 10:49:16 PM 35.8586 -79.0236 40° Northeast 438 504 33,000 595 Climbing Washington Center
Fri 10:50:17 PM 35.9619 -78.9100 42° Northeast 443 510 33,000  Level Washington Center
Fri 10:51:16 PM 36.0586 -78.8089 40° Northeast 443 510 33,000  Level Washington Center
Fri 10:52:17 PM 36.1531 -78.7072 41° Northeast 443 510 33,000  Level Washington Center
Fri 10:53:18 PM 36.2475 -78.6053 41° Northeast 448 516 33,000  Level Washington Center
Fri 10:54:18 PM 36.3419 -78.5033 41° Northeast 448 516 33,000  Level Washington Center
Fri 10:55:16 PM 36.4361 -78.3983 42° Northeast 448 516 33,000  Level Washington Center
Fri 10:56:16 PM 36.5325 -78.2958 40° Northeast 448 516 33,000  Level Washington Center
Fri 10:57:17 PM 36.6286 -78.1931 41° Northeast 448 516 33,000  Level Washington Center
Fri 10:58:16 PM 36.7097 -78.1000 43° Northeast 448 516 33,000  Level Washington Center
Fri 10:59:17 PM 36.8039 -77.9939 42° Northeast 448 516 33,000  Level Washington Center
Fri 11:00:30 PM 36.9083 -77.8778 42° Northeast 448 516 33,000  Level Washington Center
Fri 11:01:28 PM 37.0211 -77.7536 41° Northeast 448 516 33,000  Level Washington Center
Fri 11:02:28 PM 37.1147 -77.6469 42° Northeast 448 516 33,000  Level Washington Center
Fri 11:03:30 PM 37.2083 -77.5450 41° Northeast 448 516 33,000  Level Washington Center
Fri 11:05:28 PM 37.3950 -77.3381 41° Northeast 448 516 33,000  Level Washington Center
Fri 11:06:29 PM 37.4714 -77.2533 41° Northeast 448 516 33,000  Level Washington Center
Fri 11:07:28 PM 37.5731 -77.1378 42° Northeast 448 516 33,000  Level Washington Center
Fri 11:08:29 PM 37.6661 -77.0319 42° Northeast 448 516 33,000  Level Washington Center
Fri 11:09:30 PM 37.7592 -76.9261 42° Northeast 448 516 33,000  Level Washington Center
Fri 11:10:29 PM 37.8500 -76.8200 43° Northeast 448 516 33,000  Level Washington Center
Fri 11:11:29 PM 37.9406 -76.7133 43° Northeast 448 516 33,000  Level Washington Center
Fri 11:12:29 PM 38.0394 -76.6200 37° Northeast 448 516 33,000  Level Washington Center
Fri 11:13:30 PM 38.1425 -76.5211 37° Northeast 448 516 33,000  Level Washington Center
Fri 11:14:31 PM 38.2433 -76.4244 37° Northeast 448 516 33,000  Level Washington Center
Fri 11:15:28 PM 38.3481 -76.3250 37° Northeast 441 507 33,000  Level Washington Center
Fri 11:16:29 PM 38.4489 -76.2281 37° Northeast 441 507 33,000  Level Washington Center
Fri 11:17:28 PM 38.5494 -76.1225 39° Northeast 451 519 33,000 -50 Level Washington Center
Fri 11:18:29 PM 38.6519 -76.0331 34° Northeast 451 519 32,900  Descending Washington Center
Fri 11:19:30 PM 38.7503 -75.9403 36° Northeast 451 519 33,000 50 Climbing Washington Center
Fri 11:20:29 PM 38.8506 -75.8422 37° Northeast 451 519 33,000  Level Washington Center
Fri 11:21:29 PM 38.9467 -75.7411 39° Northeast 444 511 33,000  Level Washington Center
Fri 11:22:28 PM 39.0467 -75.6478 36° Northeast 444 511 33,000  Level Washington Center
Fri 11:23:29 PM 39.1425 -75.5514 38° Northeast 444 511 33,000  Level Washington Center
Fri 11:24:31 PM 39.2467 -75.4683 32° Northeast 439 505 33,000 -50 Level Washington Center
Fri 11:25:29 PM 39.3614 -75.4064 23° Northeast 434 499 32,900 -923 Descending Washington Center
Fri 11:26:28 PM 39.4736 -75.3469 22° Northeast 434 499 31,200 -764 Descending Washington Center
Fri 11:28:14 PM 39.6597 -75.2444 23° Northeast 424 488 30,800 -622 Descending New York Center
Fri 11:29:12 PM 39.7769 -75.1792 23° Northeast 431 496 29,500 -908 Descending New York Center
Fri 11:30:13 PM 39.8919 -75.1133 24° Northeast 441 507 29,000 -248 Descending New York Center
Fri 11:31:13 PM 40.0131 -75.0478 23° Northeast 455 524 29,000  Level New York Center
Fri 11:32:13 PM 40.1261 -74.9786 25° Northeast 455 524 29,000  Level New York Center
Fri 11:33:15 PM 40.2431 -74.9122 23° Northeast 450 518 29,000  Level New York Center
Fri 11:34:13 PM 40.3594 -74.8619 18° North 444 511 29,000 -489 Level New York Center
Fri 11:36:19 PM 40.6219 -74.7478 18° North 449 517 27,500 -806 Descending Boston Center
Fri 11:37:19 PM 40.7397 -74.6972 18° North 449 517 26,500 -750 Descending Boston Center
Fri 11:38:19 PM 40.8575 -74.6492 17° North 449 517 26,000 -250 Descending Boston Center
Fri 11:39:19 PM 40.9772 -74.5900 20° North 449 517 26,000  Level Boston Center
Fri 11:40:19 PM 41.0969 -74.5444 16° North 443 510 26,000  Level Boston Center
Fri 11:41:19 PM 41.2189 -74.4906 18° North 454 522 26,000  Level Boston Center
Fri 11:42:19 PM 41.3322 -74.4444 17° North 466 536 26,000  Level Boston Center
Fri 11:43:19 PM 41.4625 -74.3792 21° North 460 529 26,000 -50 Level Boston Center
Fri 11:44:19 PM 41.5800 -74.3300 17° North 466 536 25,900 -1,500 Descending Boston Center
Fri 11:45:19 PM 41.6978 -74.2778 18° North 466 536 23,000 -2,850 Descending Boston Center
Fri 11:46:19 PM 41.8131 -74.2339 16° North 461 531 20,200 -2,800 Descending Boston Center
Fri 11:47:19 PM 41.9222 -74.1811 20° North 425 489 17,400 -3,076 Descending Boston Center
Fri 11:48:18 PM 42.0439 -74.1258 19° North 402 463 14,100 -2,950 Descending Boston Center
Fri 11:49:19 PM 42.1447 -74.0808 18° North 399 459 11,500 -1,934 Descending Boston Center
Fri 11:50:19 PM 42.2392 -74.0300 22° Northeast 368 423 10,200 -1,100 Descending Boston Center
Fri 11:51:19 PM 42.3106 -73.9897 23° Northeast 323 372 9,300 -1,350 Descending Boston Center
Fri 11:52:19 PM 42.3903 -73.9469 22° Northeast 287 330 7,500 -1,922 Descending Boston Center
Fri 11:53:27 PM 42.4786 -73.9039 20° North 283 326 5,200 -1,613 Descending Boston Center
Fri 11:54:18 PM 42.5331 -73.8686 26° Northeast 268 308 4,300 -1,059 Descending Boston Center

Login

Don't have an account? Register now (free) for customized features, flight alerts, and more!